sensor_id;sensor_type;location;lat;lon;timestamp;temperature;humidity
5210;DHT22;2624;48.048;11.706;2023-10-31T00:02:51;10.70;99.90
5210;DHT22;2624;48.048;11.706;2023-10-31T00:07:54;10.60;99.90
5210;DHT22;2624;48.048;11.706;2023-10-31T00:12:56;10.40;99.90
5210;DHT22;2624;48.048;11.706;2023-10-31T00:17:58;10.40;99.90
5210;DHT22;2624;48.048;11.706;2023-10-31T00:23:01;10.40;99.90
5210;DHT22;2624;48.048;11.706;2023-10-31T00:28:03;10.40;99.90
5210;DHT22;2624;48.048;11.706;2023-10-31T00:33:05;10.20;99.90
5210;DHT22;2624;48.048;11.706;2023-10-31T00:38:08;10.00;99.90
5210;DHT22;2624;48.048;11.706;2023-10-31T00:43:10;10.10;99.90
5210;DHT22;2624;48.048;11.706;2023-10-31T00:48:12;10.10;99.90
5210;DHT22;2624;48.048;11.706;2023-10-31T00:53:15;10.10;99.90
5210;DHT22;2624;48.048;11.706;2023-10-31T00:58:17;9.90;99.90
5210;DHT22;2624;48.048;11.706;2023-10-31T01:03:19;10.00;99.90
5210;DHT22;2624;48.048;11.706;2023-10-31T01:08:22;9.70;99.90
5210;DHT22;2624;48.048;11.706;2023-10-31T01:13:24;10.00;99.90
5210;DHT22;2624;48.048;11.706;2023-10-31T01:18:25;9.80;99.90
5210;DHT22;2624;48.048;11.706;2023-10-31T01:23:28;9.80;99.90
5210;DHT22;2624;48.048;11.706;2023-10-31T01:28:30;9.70;99.90
5210;DHT22;2624;48.048;11.706;2023-10-31T01:33:32;9.70;99.90
5210;DHT22;2624;48.048;11.706;2023-10-31T01:38:35;9.70;99.90
5210;DHT22;2624;48.048;11.706;2023-10-31T01:43:37;9.60;99.90
5210;DHT22;2624;48.048;11.706;2023-10-31T01:48:39;9.50;99.90
5210;DHT22;2624;48.048;11.706;2023-10-31T01:53:43;9.60;99.90
5210;DHT22;2624;48.048;11.706;2023-10-31T01:58:45;9.60;99.90
5210;DHT22;2624;48.048;11.706;2023-10-31T02:03:47;9.60;99.90
5210;DHT22;2624;48.048;11.706;2023-10-31T02:08:50;9.60;99.90
5210;DHT22;2624;48.048;11.706;2023-10-31T02:13:52;9.40;99.90
5210;DHT22;2624;48.048;11.706;2023-10-31T02:18:54;9.40;99.90
5210;DHT22;2624;48.048;11.706;2023-10-31T02:23:59;9.30;99.90
5210;DHT22;2624;48.048;11.706;2023-10-31T02:29:02;9.20;99.90
5210;DHT22;2624;48.048;11.706;2023-10-31T02:34:04;9.40;99.90
5210;DHT22;2624;48.048;11.706;2023-10-31T02:39:08;9.30;99.90
5210;DHT22;2624;48.048;11.706;2023-10-31T02:44:10;9.40;99.90
5210;DHT22;2624;48.048;11.706;2023-10-31T02:49:11;9.20;99.90
5210;DHT22;2624;48.048;11.706;2023-10-31T02:54:14;9.30;99.90
5210;DHT22;2624;48.048;11.706;2023-10-31T02:59:16;9.20;99.90
5210;DHT22;2624;48.048;11.706;2023-10-31T03:04:18;9.20;99.90
5210;DHT22;2624;48.048;11.706;2023-10-31T03:09:21;9.10;99.90
5210;DHT22;2624;48.048;11.706;2023-10-31T03:14:23;9.20;99.90
5210;DHT22;2624;48.048;11.706;2023-10-31T03:19:25;9.10;99.90
5210;DHT22;2624;48.048;11.706;2023-10-31T03:24:28;9.20;99.90
5210;DHT22;2624;48.048;11.706;2023-10-31T03:29:30;9.20;99.90
5210;DHT22;2624;48.048;11.706;2023-10-31T03:34:32;9.30;99.90
5210;DHT22;2624;48.048;11.706;2023-10-31T03:39:35;9.10;99.90
5210;DHT22;2624;48.048;11.706;2023-10-31T03:44:36;9.00;99.90
5210;DHT22;2624;48.048;11.706;2023-10-31T03:49:38;9.00;99.90
5210;DHT22;2624;48.048;11.706;2023-10-31T03:54:42;9.00;99.90
5210;DHT22;2624;48.048;11.706;2023-10-31T03:59:43;9.00;99.90
5210;DHT22;2624;48.048;11.706;2023-10-31T04:04:45;9.10;99.90
5210;DHT22;2624;48.048;11.706;2023-10-31T04:09:48;8.90;99.90
5210;DHT22;2624;48.048;11.706;2023-10-31T04:14:50;8.90;99.90
5210;DHT22;2624;48.048;11.706;2023-10-31T04:19:51;8.90;99.90
5210;DHT22;2624;48.048;11.706;2023-10-31T04:24:55;8.90;99.90
5210;DHT22;2624;48.048;11.706;2023-10-31T04:29:57;8.90;99.90
5210;DHT22;2624;48.048;11.706;2023-10-31T04:34:58;8.90;99.90
5210;DHT22;2624;48.048;11.706;2023-10-31T04:40:01;8.80;99.90
5210;DHT22;2624;48.048;11.706;2023-10-31T04:45:04;8.90;99.90
5210;DHT22;2624;48.048;11.706;2023-10-31T04:50:07;8.90;99.90
5210;DHT22;2624;48.048;11.706;2023-10-31T04:55:10;8.90;99.90
5210;DHT22;2624;48.048;11.706;2023-10-31T05:00:13;8.90;99.90
5210;DHT22;2624;48.048;11.706;2023-10-31T05:05:15;8.80;99.90
5210;DHT22;2624;48.048;11.706;2023-10-31T05:10:18;8.70;99.90
5210;DHT22;2624;48.048;11.706;2023-10-31T05:15:20;8.80;99.90
5210;DHT22;2624;48.048;11.706;2023-10-31T05:20:21;8.80;99.90
5210;DHT22;2624;48.048;11.706;2023-10-31T05:25:24;8.70;99.90
5210;DHT22;2624;48.048;11.706;2023-10-31T05:30:26;8.80;99.90
5210;DHT22;2624;48.048;11.706;2023-10-31T05:35:28;8.70;99.90
5210;DHT22;2624;48.048;11.706;2023-10-31T05:40:31;8.70;99.90
5210;DHT22;2624;48.048;11.706;2023-10-31T05:45:35;8.80;99.90
5210;DHT22;2624;48.048;11.706;2023-10-31T05:50:37;8.80;99.90
5210;DHT22;2624;48.048;11.706;2023-10-31T05:55:40;8.70;99.90
5210;DHT22;2624;48.048;11.706;2023-10-31T06:00:42;8.70;99.90
5210;DHT22;2624;48.048;11.706;2023-10-31T06:05:44;8.70;99.90
5210;DHT22;2624;48.048;11.706;2023-10-31T06:10:47;8.70;99.90
5210;DHT22;2624;48.048;11.706;2023-10-31T06:15:49;8.70;99.90
5210;DHT22;2624;48.048;11.706;2023-10-31T06:20:51;8.70;99.90
5210;DHT22;2624;48.048;11.706;2023-10-31T06:25:54;8.60;99.90
5210;DHT22;2624;48.048;11.706;2023-10-31T06:30:56;8.80;99.90
5210;DHT22;2624;48.048;11.706;2023-10-31T06:35:57;8.80;99.90
5210;DHT22;2624;48.048;11.706;2023-10-31T06:41:00;8.60;99.90
5210;DHT22;2624;48.048;11.706;2023-10-31T06:46:03;8.70;99.90
5210;DHT22;2624;48.048;11.706;2023-10-31T06:51:05;8.70;99.90
5210;DHT22;2624;48.048;11.706;2023-10-31T06:56:08;8.30;99.90
5210;DHT22;2624;48.048;11.706;2023-10-31T07:01:10;8.60;99.90
5210;DHT22;2624;48.048;11.706;2023-10-31T07:06:13;8.60;99.90
5210;DHT22;2624;48.048;11.706;2023-10-31T07:11:16;8.60;99.90
5210;DHT22;2624;48.048;11.706;2023-10-31T07:16:17;8.60;99.90
5210;DHT22;2624;48.048;11.706;2023-10-31T07:21:19;8.60;99.90
5210;DHT22;2624;48.048;11.706;2023-10-31T07:26:22;8.70;99.90
5210;DHT22;2624;48.048;11.706;2023-10-31T07:31:24;8.60;99.90
5210;DHT22;2624;48.048;11.706;2023-10-31T07:36:26;8.60;99.90
5210;DHT22;2624;48.048;11.706;2023-10-31T07:41:29;8.50;99.90
5210;DHT22;2624;48.048;11.706;2023-10-31T07:46:31;8.70;99.90
5210;DHT22;2624;48.048;11.706;2023-10-31T07:51:33;8.60;99.90
5210;DHT22;2624;48.048;11.706;2023-10-31T07:56:36;8.50;99.90
5210;DHT22;2624;48.048;11.706;2023-10-31T08:01:38;8.60;99.90
5210;DHT22;2624;48.048;11.706;2023-10-31T08:06:40;8.70;99.90
5210;DHT22;2624;48.048;11.706;2023-10-31T08:11:43;8.60;99.90
5210;DHT22;2624;48.048;11.706;2023-10-31T08:16:44;8.50;99.90
5210;DHT22;2624;48.048;11.706;2023-10-31T08:21:46;8.50;99.90
5210;DHT22;2624;48.048;11.706;2023-10-31T08:26:49;8.60;99.90
5210;DHT22;2624;48.048;11.706;2023-10-31T08:31:51;8.40;99.90
5210;DHT22;2624;48.048;11.706;2023-10-31T08:36:53;8.50;99.90
5210;DHT22;2624;48.048;11.706;2023-10-31T08:41:58;8.40;99.90
5210;DHT22;2624;48.048;11.706;2023-10-31T08:47:00;8.50;99.90
5210;DHT22;2624;48.048;11.706;2023-10-31T08:52:01;8.50;99.90
5210;DHT22;2624;48.048;11.706;2023-10-31T08:57:06;8.50;99.90
5210;DHT22;2624;48.048;11.706;2023-10-31T09:02:08;8.60;99.90
5210;DHT22;2624;48.048;11.706;2023-10-31T09:07:09;8.50;99.90
5210;DHT22;2624;48.048;11.706;2023-10-31T09:12:12;8.40;99.90
5210;DHT22;2624;48.048;11.706;2023-10-31T09:17:14;8.50;99.90
5210;DHT22;2624;48.048;11.706;2023-10-31T09:22:16;8.50;99.90
5210;DHT22;2624;48.048;11.706;2023-10-31T09:27:19;8.50;99.90
5210;DHT22;2624;48.048;11.706;2023-10-31T09:32:21;8.50;99.90
5210;DHT22;2624;48.048;11.706;2023-10-31T09:37:22;8.50;99.90
5210;DHT22;2624;48.048;11.706;2023-10-31T09:42:26;8.50;99.90
5210;DHT22;2624;48.048;11.706;2023-10-31T09:47:29;8.50;99.90
5210;DHT22;2624;48.048;11.706;2023-10-31T09:52:32;8.60;99.90
5210;DHT22;2624;48.048;11.706;2023-10-31T09:57:35;8.60;99.90
5210;DHT22;2624;48.048;11.706;2023-10-31T10:02:37;8.60;99.90
5210;DHT22;2624;48.048;11.706;2023-10-31T10:07:41;8.60;99.90
5210;DHT22;2624;48.048;11.706;2023-10-31T10:12:45;8.60;99.90
5210;DHT22;2624;48.048;11.706;2023-10-31T10:17:50;8.60;99.90
5210;DHT22;2624;48.048;11.706;2023-10-31T10:22:52;8.60;99.90
5210;DHT22;2624;48.048;11.706;2023-10-31T10:27:56;8.50;99.90
5210;DHT22;2624;48.048;11.706;2023-10-31T10:32:57;8.50;99.90
5210;DHT22;2624;48.048;11.706;2023-10-31T10:38:00;8.50;99.90
5210;DHT22;2624;48.048;11.706;2023-10-31T10:43:06;8.50;99.90
5210;DHT22;2624;48.048;11.706;2023-10-31T10:48:13;8.60;99.90
5210;DHT22;2624;48.048;11.706;2023-10-31T10:53:23;8.50;99.90
5210;DHT22;2624;48.048;11.706;2023-10-31T10:58:41;8.60;99.90
5210;DHT22;2624;48.048;11.706;2023-10-31T11:03:46;8.70;99.90
5210;DHT22;2624;48.048;11.706;2023-10-31T11:08:48;8.60;99.90
5210;DHT22;2624;48.048;11.706;2023-10-31T11:13:52;8.60;99.90
5210;DHT22;2624;48.048;11.706;2023-10-31T11:18:54;8.70;99.90
5210;DHT22;2624;48.048;11.706;2023-10-31T11:24:00;8.70;99.90
5210;DHT22;2624;48.048;11.706;2023-10-31T11:29:06;8.90;99.90
5210;DHT22;2624;48.048;11.706;2023-10-31T11:34:09;9.00;99.90
5210;DHT22;2624;48.048;11.706;2023-10-31T11:39:12;9.10;99.90
5210;DHT22;2624;48.048;11.706;2023-10-31T11:44:17;9.10;99.90
5210;DHT22;2624;48.048;11.706;2023-10-31T11:49:45;9.30;99.90
5210;DHT22;2624;48.048;11.706;2023-10-31T11:54:47;9.30;99.90
5210;DHT22;2624;48.048;11.706;2023-10-31T11:59:50;9.30;99.90
5210;DHT22;2624;48.048;11.706;2023-10-31T12:05:06;9.40;99.90
5210;DHT22;2624;48.048;11.706;2023-10-31T12:10:08;9.50;99.90
5210;DHT22;2624;48.048;11.706;2023-10-31T12:15:12;9.40;99.90
5210;DHT22;2624;48.048;11.706;2023-10-31T12:20:14;9.50;99.90
5210;DHT22;2624;48.048;11.706;2023-10-31T12:25:17;9.60;99.90
5210;DHT22;2624;48.048;11.706;2023-10-31T12:30:20;9.60;99.90
5210;DHT22;2624;48.048;11.706;2023-10-31T12:35:25;9.60;99.90
5210;DHT22;2624;48.048;11.706;2023-10-31T12:40:27;9.70;99.90
5210;DHT22;2624;48.048;11.706;2023-10-31T12:45:30;9.80;99.90
5210;DHT22;2624;48.048;11.706;2023-10-31T12:50:33;9.80;99.90
5210;DHT22;2624;48.048;11.706;2023-10-31T12:55:40;9.80;99.90
5210;DHT22;2624;48.048;11.706;2023-10-31T13:00:45;9.80;99.90
5210;DHT22;2624;48.048;11.706;2023-10-31T13:05:46;9.90;99.90
5210;DHT22;2624;48.048;11.706;2023-10-31T13:10:49;9.80;99.90
5210;DHT22;2624;48.048;11.706;2023-10-31T13:15:52;9.80;99.90
5210;DHT22;2624;48.048;11.706;2023-10-31T13:20:55;9.70;99.90
5210;DHT22;2624;48.048;11.706;2023-10-31T13:25:56;9.60;99.90
5210;DHT22;2624;48.048;11.706;2023-10-31T13:30:59;9.60;99.90
5210;DHT22;2624;48.048;11.706;2023-10-31T13:36:03;9.60;99.90
5210;DHT22;2624;48.048;11.706;2023-10-31T13:41:05;9.60;99.90
5210;DHT22;2624;48.048;11.706;2023-10-31T13:46:08;9.60;99.90
5210;DHT22;2624;48.048;11.706;2023-10-31T13:51:10;9.60;99.90
5210;DHT22;2624;48.048;11.706;2023-10-31T13:56:12;9.60;99.90
5210;DHT22;2624;48.048;11.706;2023-10-31T14:01:15;9.60;99.90
5210;DHT22;2624;48.048;11.706;2023-10-31T14:06:17;9.70;99.90
5210;DHT22;2624;48.048;11.706;2023-10-31T14:11:19;9.70;99.90
5210;DHT22;2624;48.048;11.706;2023-10-31T14:16:22;9.70;99.90
5210;DHT22;2624;48.048;11.706;2023-10-31T14:21:24;9.60;99.90
5210;DHT22;2624;48.048;11.706;2023-10-31T14:26:26;9.70;99.90
5210;DHT22;2624;48.048;11.706;2023-10-31T14:31:30;9.60;99.90
5210;DHT22;2624;48.048;11.706;2023-10-31T14:36:31;9.70;99.90
5210;DHT22;2624;48.048;11.706;2023-10-31T14:41:33;9.60;99.90
5210;DHT22;2624;48.048;11.706;2023-10-31T14:46:36;9.50;99.90
5210;DHT22;2624;48.048;11.706;2023-10-31T14:51:38;9.20;99.90
5210;DHT22;2624;48.048;11.706;2023-10-31T14:56:42;9.20;99.90
5210;DHT22;2624;48.048;11.706;2023-10-31T15:01:45;9.20;99.90
5210;DHT22;2624;48.048;11.706;2023-10-31T15:06:47;9.20;99.90
5210;DHT22;2624;48.048;11.706;2023-10-31T15:11:48;9.20;99.90
5210;DHT22;2624;48.048;11.706;2023-10-31T15:16:51;9.20;99.90
5210;DHT22;2624;48.048;11.706;2023-10-31T15:21:54;9.20;99.90
5210;DHT22;2624;48.048;11.706;2023-10-31T15:26:56;9.20;99.90
5210;DHT22;2624;48.048;11.706;2023-10-31T15:31:59;9.20;99.90
5210;DHT22;2624;48.048;11.706;2023-10-31T15:37:00;9.20;99.90
5210;DHT22;2624;48.048;11.706;2023-10-31T15:42:02;9.20;99.90
5210;DHT22;2624;48.048;11.706;2023-10-31T15:47:06;9.30;99.90
5210;DHT22;2624;48.048;11.706;2023-10-31T15:52:08;9.10;99.90
5210;DHT22;2624;48.048;11.706;2023-10-31T15:57:10;9.10;99.90
5210;DHT22;2624;48.048;11.706;2023-10-31T16:02:13;9.00;99.90
5210;DHT22;2624;48.048;11.706;2023-10-31T16:07:16;9.10;99.90
5210;DHT22;2624;48.048;11.706;2023-10-31T16:12:18;9.10;99.90
5210;DHT22;2624;48.048;11.706;2023-10-31T16:17:21;9.10;99.90
5210;DHT22;2624;48.048;11.706;2023-10-31T16:22:23;9.00;99.90
5210;DHT22;2624;48.048;11.706;2023-10-31T16:27:25;9.10;99.90
5210;DHT22;2624;48.048;11.706;2023-10-31T16:32:28;9.00;99.90
5210;DHT22;2624;48.048;11.706;2023-10-31T16:37:30;9.00;99.90
5210;DHT22;2624;48.048;11.706;2023-10-31T16:42:31;9.10;99.90
5210;DHT22;2624;48.048;11.706;2023-10-31T16:47:34;9.10;99.90
5210;DHT22;2624;48.048;11.706;2023-10-31T16:52:36;9.10;99.90
5210;DHT22;2624;48.048;11.706;2023-10-31T16:57:38;8.90;99.90
5210;DHT22;2624;48.048;11.706;2023-10-31T17:02:41;9.00;99.90
5210;DHT22;2624;48.048;11.706;2023-10-31T17:07:43;9.10;99.90
5210;DHT22;2624;48.048;11.706;2023-10-31T17:12:44;9.10;99.90
5210;DHT22;2624;48.048;11.706;2023-10-31T17:17:48;9.10;99.90
5210;DHT22;2624;48.048;11.706;2023-10-31T17:22:49;9.10;99.90
5210;DHT22;2624;48.048;11.706;2023-10-31T17:27:51;9.10;99.90
5210;DHT22;2624;48.048;11.706;2023-10-31T17:32:54;9.10;99.90
5210;DHT22;2624;48.048;11.706;2023-10-31T17:37:56;9.20;99.90
5210;DHT22;2624;48.048;11.706;2023-10-31T17:42:58;9.20;99.90
5210;DHT22;2624;48.048;11.706;2023-10-31T17:48:01;9.20;99.90
5210;DHT22;2624;48.048;11.706;2023-10-31T17:53:03;9.20;99.90
5210;DHT22;2624;48.048;11.706;2023-10-31T17:58:05;9.20;99.90
5210;DHT22;2624;48.048;11.706;2023-10-31T18:03:08;9.10;99.90
5210;DHT22;2624;48.048;11.706;2023-10-31T18:08:09;9.10;99.90
5210;DHT22;2624;48.048;11.706;2023-10-31T18:13:11;9.20;99.90
5210;DHT22;2624;48.048;11.706;2023-10-31T18:18:14;9.10;99.90
5210;DHT22;2624;48.048;11.706;2023-10-31T18:23:16;9.10;99.90
5210;DHT22;2624;48.048;11.706;2023-10-31T18:28:18;9.00;99.90
5210;DHT22;2624;48.048;11.706;2023-10-31T18:33:21;9.10;99.90
5210;DHT22;2624;48.048;11.706;2023-10-31T18:38:22;9.10;99.90
5210;DHT22;2624;48.048;11.706;2023-10-31T18:43:24;8.90;99.90
5210;DHT22;2624;48.048;11.706;2023-10-31T18:48:27;8.90;99.90
5210;DHT22;2624;48.048;11.706;2023-10-31T18:53:29;8.80;99.90
5210;DHT22;2624;48.048;11.706;2023-10-31T18:58:31;8.90;99.90
5210;DHT22;2624;48.048;11.706;2023-10-31T19:03:34;8.80;99.90
5210;DHT22;2624;48.048;11.706;2023-10-31T19:08:36;8.80;99.90
5210;DHT22;2624;48.048;11.706;2023-10-31T19:13:38;8.80;99.90
5210;DHT22;2624;48.048;11.706;2023-10-31T19:18:41;8.80;99.90
5210;DHT22;2624;48.048;11.706;2023-10-31T19:23:43;8.80;99.90
5210;DHT22;2624;48.048;11.706;2023-10-31T19:28:44;8.90;99.90
5210;DHT22;2624;48.048;11.706;2023-10-31T19:33:47;8.90;99.90
5210;DHT22;2624;48.048;11.706;2023-10-31T19:38:50;8.80;99.90
5210;DHT22;2624;48.048;11.706;2023-10-31T19:43:54;8.80;99.90
5210;DHT22;2624;48.048;11.706;2023-10-31T19:48:57;8.80;99.90
5210;DHT22;2624;48.048;11.706;2023-10-31T19:53:59;8.80;99.90
5210;DHT22;2624;48.048;11.706;2023-10-31T19:59:01;8.80;99.90
5210;DHT22;2624;48.048;11.706;2023-10-31T20:04:05;8.90;99.90
5210;DHT22;2624;48.048;11.706;2023-10-31T20:09:07;8.90;99.90
5210;DHT22;2624;48.048;11.706;2023-10-31T20:14:09;9.00;99.90
5210;DHT22;2624;48.048;11.706;2023-10-31T20:19:13;8.90;99.90
5210;DHT22;2624;48.048;11.706;2023-10-31T20:24:15;8.80;99.90
5210;DHT22;2624;48.048;11.706;2023-10-31T20:29:16;8.80;99.90
5210;DHT22;2624;48.048;11.706;2023-10-31T20:34:19;8.90;99.90
5210;DHT22;2624;48.048;11.706;2023-10-31T20:39:21;9.00;99.90
5210;DHT22;2624;48.048;11.706;2023-10-31T20:44:23;8.90;99.90
5210;DHT22;2624;48.048;11.706;2023-10-31T20:49:26;8.90;99.90
5210;DHT22;2624;48.048;11.706;2023-10-31T20:54:28;9.00;99.90
5210;DHT22;2624;48.048;11.706;2023-10-31T20:59:30;9.00;99.90
5210;DHT22;2624;48.048;11.706;2023-10-31T21:04:33;9.00;99.90
5210;DHT22;2624;48.048;11.706;2023-10-31T21:09:36;9.10;99.90
5210;DHT22;2624;48.048;11.706;2023-10-31T21:14:38;9.00;99.90
5210;DHT22;2624;48.048;11.706;2023-10-31T21:19:42;9.00;99.90
5210;DHT22;2624;48.048;11.706;2023-10-31T21:24:43;8.90;99.90
5210;DHT22;2624;48.048;11.706;2023-10-31T21:29:46;9.00;99.90
5210;DHT22;2624;48.048;11.706;2023-10-31T21:34:49;8.90;99.90
5210;DHT22;2624;48.048;11.706;2023-10-31T21:39:50;9.00;99.90
5210;DHT22;2624;48.048;11.706;2023-10-31T21:44:52;8.90;99.90
5210;DHT22;2624;48.048;11.706;2023-10-31T21:49:55;9.00;99.90
5210;DHT22;2624;48.048;11.706;2023-10-31T21:54:57;8.90;99.90
5210;DHT22;2624;48.048;11.706;2023-10-31T21:59:59;9.00;99.90
5210;DHT22;2624;48.048;11.706;2023-10-31T22:05:02;9.00;99.90
5210;DHT22;2624;48.048;11.706;2023-10-31T22:10:05;9.00;99.90
5210;DHT22;2624;48.048;11.706;2023-10-31T22:15:08;9.00;99.90
5210;DHT22;2624;48.048;11.706;2023-10-31T22:20:17;9.00;99.90
5210;DHT22;2624;48.048;11.706;2023-10-31T22:25:19;8.80;99.90
5210;DHT22;2624;48.048;11.706;2023-10-31T22:30:20;9.00;99.90
5210;DHT22;2624;48.048;11.706;2023-10-31T22:35:23;9.00;99.90
5210;DHT22;2624;48.048;11.706;2023-10-31T22:40:26;8.90;99.90
5210;DHT22;2624;48.048;11.706;2023-10-31T22:45:27;8.90;99.90
5210;DHT22;2624;48.048;11.706;2023-10-31T22:50:30;8.90;99.90
5210;DHT22;2624;48.048;11.706;2023-10-31T22:55:33;8.90;99.90
5210;DHT22;2624;48.048;11.706;2023-10-31T23:00:35;9.00;99.90
5210;DHT22;2624;48.048;11.706;2023-10-31T23:05:38;8.90;99.90
5210;DHT22;2624;48.048;11.706;2023-10-31T23:10:40;9.00;99.90
5210;DHT22;2624;48.048;11.706;2023-10-31T23:15:42;8.90;99.90
5210;DHT22;2624;48.048;11.706;2023-10-31T23:20:45;9.10;99.90
5210;DHT22;2624;48.048;11.706;2023-10-31T23:25:47;9.00;99.90
5210;DHT22;2624;48.048;11.706;2023-10-31T23:30:49;9.00;99.90
5210;DHT22;2624;48.048;11.706;2023-10-31T23:35:52;9.00;99.90
5210;DHT22;2624;48.048;11.706;2023-10-31T23:40:53;9.00;99.90
5210;DHT22;2624;48.048;11.706;2023-10-31T23:45:55;9.10;99.90
5210;DHT22;2624;48.048;11.706;2023-10-31T23:50:58;9.00;99.90
5210;DHT22;2624;48.048;11.706;2023-10-31T23:56:00;9.00;99.90
